createdAt,value
2018-01-07T00:00:05.618Z,966.7
2018-01-07T00:01:07.783Z,966.7
2018-01-07T00:02:09.048Z,966.8
2018-01-07T00:03:11.152Z,966.8
2018-01-07T00:04:12.986Z,966.8
2018-01-07T00:05:14.769Z,966.8
2018-01-07T00:06:16.568Z,966.8
2018-01-07T00:07:18.361Z,966.8
2018-01-07T00:08:20.503Z,966.8
2018-01-07T00:09:22.372Z,966.9
2018-01-07T00:10:24.192Z,966.9
2018-01-07T00:11:26.061Z,966.8
2018-01-07T00:12:27.913Z,966.9
2018-01-07T00:13:29.693Z,966.9
2018-01-07T00:14:32.310Z,966.9
2018-01-07T00:15:34.309Z,966.9
2018-01-07T00:16:36.191Z,966.9
2018-01-07T00:17:37.983Z,966.9
2018-01-07T00:18:39.916Z,966.9
2018-01-07T00:19:41.859Z,966.8
2018-01-07T00:20:43.718Z,966.9
2018-01-07T00:21:45.504Z,966.9
2018-01-07T00:22:48.410Z,966.9
2018-01-07T00:23:50.312Z,966.9
2018-01-07T00:24:52.701Z,966.9
2018-01-07T00:25:54.588Z,966.9
2018-01-07T00:26:56.450Z,966.9
2018-01-07T00:27:58.327Z,966.9
2018-01-07T00:29:00.150Z,966.9
2018-01-07T00:30:01.986Z,967.0
2018-01-07T00:31:04.691Z,967.0
2018-01-07T00:32:06.663Z,967.0
2018-01-07T00:33:08.498Z,967.0
2018-01-07T00:34:10.256Z,967.0
2018-01-07T00:35:12.092Z,967.0
2018-01-07T00:36:14.109Z,967.0
2018-01-07T00:37:15.964Z,967.0
2018-01-07T00:38:17.828Z,967.1
2018-01-07T00:39:19.672Z,967.1
2018-01-07T00:40:21.534Z,967.1
2018-01-07T00:41:23.495Z,967.1
2018-01-07T00:42:25.362Z,967.1
2018-01-07T00:43:27.259Z,967.2
2018-01-07T00:44:29.430Z,967.2
2018-01-07T00:45:31.503Z,967.2
2018-01-07T00:46:33.343Z,967.1
2018-01-07T00:47:35.266Z,967.2
2018-01-07T00:48:37.338Z,967.2
2018-01-07T00:49:39.200Z,967.1
2018-01-07T00:50:41.035Z,967.2
2018-01-07T00:51:42.953Z,967.2
2018-01-07T00:52:44.903Z,967.3
2018-01-07T00:53:49.393Z,967.3
2018-01-07T00:54:51.312Z,967.3
2018-01-07T00:55:55.164Z,967.3
2018-01-07T00:56:56.998Z,967.3
2018-01-07T00:57:59.043Z,967.3
2018-01-07T00:59:00.984Z,967.4
2018-01-07T01:00:27.393Z,967.4
2018-01-07T01:01:27.393Z,967.4
2018-01-07T01:02:29.368Z,967.4
2018-01-07T01:03:31.329Z,967.4
2018-01-07T01:04:33.211Z,967.4
2018-01-07T01:05:35.141Z,967.4
2018-01-07T01:06:37.374Z,967.5
2018-01-07T01:07:39.410Z,967.5
2018-01-07T01:08:41.398Z,967.5
2018-01-07T01:09:43.363Z,967.5
2018-01-07T01:10:45.312Z,967.5
2018-01-07T01:11:47.240Z,967.5
2018-01-07T01:12:49.168Z,967.6
2018-01-07T01:13:51.203Z,967.6
2018-01-07T01:14:53.135Z,967.6
2018-01-07T01:15:55.034Z,967.6
2018-01-07T01:16:57.232Z,967.6
2018-01-07T01:17:59.134Z,967.6
2018-01-07T01:19:01.147Z,967.6
2018-01-07T01:20:03.228Z,967.6
2018-01-07T01:21:05.306Z,967.7
2018-01-07T01:22:07.385Z,967.7
2018-01-07T01:23:09.424Z,967.7
2018-01-07T01:24:11.493Z,967.7
2018-01-07T01:25:13.434Z,967.7
2018-01-07T01:26:15.390Z,967.8
2018-01-07T01:27:17.348Z,967.8
2018-01-07T01:28:19.255Z,967.8
2018-01-07T01:29:21.380Z,967.8
2018-01-07T01:30:23.362Z,967.8
2018-01-07T01:31:25.321Z,967.8
2018-01-07T01:32:27.303Z,967.9
2018-01-07T01:33:29.198Z,967.9
2018-01-07T01:34:31.136Z,967.9
2018-01-07T01:35:33.025Z,967.9
2018-01-07T01:36:34.971Z,967.9
2018-01-07T01:37:36.844Z,968.0
2018-01-07T01:38:38.724Z,968.0
2018-01-07T01:39:40.669Z,968.0
2018-01-07T01:40:42.538Z,968.0
2018-01-07T01:41:44.415Z,968.0
2018-01-07T01:42:46.443Z,968.0
2018-01-07T01:43:48.381Z,968.0
2018-01-07T01:44:50.407Z,968.1
2018-01-07T01:45:52.315Z,968.1
2018-01-07T01:46:54.230Z,968.1
2018-01-07T01:47:56.215Z,968.1
2018-01-07T01:48:58.111Z,968.1
2018-01-07T01:50:00.094Z,968.1
2018-01-07T01:51:02.062Z,968.1
2018-01-07T01:52:04.034Z,968.2
2018-01-07T01:53:05.960Z,968.2
2018-01-07T01:54:07.952Z,968.2
2018-01-07T01:55:09.874Z,968.2
2018-01-07T01:56:11.820Z,968.2
2018-01-07T01:57:13.757Z,968.3
2018-01-07T01:58:15.711Z,968.3
2018-01-07T01:59:17.573Z,968.3
2018-01-07T02:00:19.488Z,968.3
2018-01-07T02:01:21.490Z,968.3
2018-01-07T02:02:23.416Z,968.4
2018-01-07T02:03:25.433Z,968.3
2018-01-07T02:04:27.383Z,968.3
2018-01-07T02:05:29.341Z,968.3
2018-01-07T02:06:31.184Z,968.4
2018-01-07T02:07:33.118Z,968.4
2018-01-07T02:08:35.068Z,968.4
2018-01-07T02:09:37.115Z,968.4
2018-01-07T02:10:39.061Z,968.4
2018-01-07T02:11:41.045Z,968.5
2018-01-07T02:12:43.038Z,968.4
2018-01-07T02:13:44.943Z,968.4
2018-01-07T02:14:46.803Z,968.5
2018-01-07T02:15:48.756Z,968.5
2018-01-07T02:16:50.709Z,968.5
2018-01-07T02:17:52.658Z,968.5
2018-01-07T02:18:54.576Z,968.5
2018-01-07T02:19:56.915Z,968.5
2018-01-07T02:20:58.907Z,968.5
2018-01-07T02:22:00.800Z,968.5
2018-01-07T02:23:02.804Z,968.5
2018-01-07T02:24:04.780Z,968.5
2018-01-07T02:25:06.673Z,968.5
2018-01-07T02:26:08.707Z,968.5
2018-01-07T02:27:10.619Z,968.6
2018-01-07T02:28:12.651Z,968.6
2018-01-07T02:29:14.715Z,968.6
2018-01-07T02:30:16.681Z,968.6
2018-01-07T02:31:18.601Z,968.6
2018-01-07T02:32:20.646Z,968.7
2018-01-07T02:33:22.570Z,968.7
2018-01-07T02:34:24.556Z,968.7
2018-01-07T02:35:26.621Z,968.7
2018-01-07T02:36:28.567Z,968.7
2018-01-07T02:37:30.563Z,968.8
2018-01-07T02:38:32.540Z,968.8
2018-01-07T02:39:34.424Z,968.8
2018-01-07T02:40:36.343Z,968.8
2018-01-07T02:41:38.261Z,968.8
2018-01-07T02:42:40.178Z,968.8
2018-01-07T02:43:42.118Z,968.8
2018-01-07T02:44:44.048Z,968.9
2018-01-07T02:45:45.845Z,968.8
2018-01-07T02:46:47.766Z,968.8
2018-01-07T02:47:49.620Z,968.8
2018-01-07T02:48:51.514Z,968.9
2018-01-07T02:49:53.349Z,968.9
2018-01-07T02:50:55.294Z,968.9
2018-01-07T02:51:57.155Z,968.9
2018-01-07T02:52:59.097Z,968.9
2018-01-07T02:54:01.003Z,968.9
2018-01-07T02:55:02.896Z,968.9
2018-01-07T03:00:59.072Z,969.0
2018-01-07T03:02:00.726Z,969.0
2018-01-07T03:03:02.406Z,969.1
2018-01-07T03:04:04.079Z,969.0
2018-01-07T03:05:05.718Z,969.1
2018-01-07T03:06:07.377Z,969.1
2018-01-07T03:07:09.061Z,969.1
2018-01-07T03:08:10.700Z,969.1
2018-01-07T03:09:12.363Z,969.1
2018-01-07T03:10:14.000Z,969.1
2018-01-07T03:11:15.660Z,969.1
2018-01-07T03:12:17.328Z,969.2
2018-01-07T03:13:18.994Z,969.1
2018-01-07T03:14:20.639Z,969.1
2018-01-07T03:15:22.306Z,969.1
2018-01-07T03:16:23.972Z,969.2
2018-01-07T03:17:25.639Z,969.2
2018-01-07T03:18:27.294Z,969.2
2018-01-07T03:19:28.956Z,969.2
2018-01-07T03:20:30.608Z,969.2
2018-01-07T03:21:32.263Z,969.2
2018-01-07T03:22:33.913Z,969.2
2018-01-07T03:23:35.602Z,969.2
2018-01-07T03:24:37.268Z,969.2
2018-01-07T03:25:38.932Z,969.2
2018-01-07T03:26:40.575Z,969.2
2018-01-07T03:27:42.274Z,969.3
2018-01-07T03:28:43.924Z,969.2
2018-01-07T03:29:45.589Z,969.2
2018-01-07T03:30:47.241Z,969.3
2018-01-07T03:31:48.877Z,969.2
2018-01-07T03:32:50.543Z,969.3
2018-01-07T03:33:52.214Z,969.2
2018-01-07T03:34:53.871Z,969.3
2018-01-07T03:35:55.541Z,969.3
2018-01-07T03:36:57.196Z,969.3
2018-01-07T03:37:58.877Z,969.3
2018-01-07T03:39:00.535Z,969.3
2018-01-07T03:40:02.190Z,969.2
2018-01-07T03:41:03.953Z,969.3
2018-01-07T03:42:05.606Z,969.2
2018-01-07T03:43:07.260Z,969.2
2018-01-07T03:44:08.913Z,969.3
2018-01-07T03:45:10.565Z,969.2
2018-01-07T03:46:12.217Z,969.2
2018-01-07T03:47:13.906Z,969.3
2018-01-07T03:48:15.554Z,969.3
2018-01-07T03:49:17.241Z,969.2
2018-01-07T03:50:18.892Z,969.3
2018-01-07T03:51:20.560Z,969.3
2018-01-07T03:52:22.209Z,969.3
2018-01-07T03:53:23.878Z,969.3
2018-01-07T03:54:25.546Z,969.3
2018-01-07T03:55:27.212Z,969.4
2018-01-07T03:56:28.860Z,969.4
2018-01-07T03:57:30.514Z,969.4
2018-01-07T03:58:32.193Z,969.4
2018-01-07T03:59:33.868Z,969.4
2018-01-07T04:00:35.522Z,969.4
2018-01-07T04:01:37.166Z,969.3
2018-01-07T04:02:38.832Z,969.4
2018-01-07T04:03:40.464Z,969.4
2018-01-07T04:04:42.125Z,969.4
2018-01-07T04:05:43.771Z,969.4
2018-01-07T04:06:45.415Z,969.4
2018-01-07T04:07:47.060Z,969.5
2018-01-07T04:08:48.712Z,969.5
2018-01-07T04:09:50.394Z,969.6
2018-01-07T04:10:52.047Z,969.6
2018-01-07T04:11:53.698Z,969.6
2018-01-07T04:12:55.366Z,969.6
2018-01-07T04:13:57.145Z,969.6
2018-01-07T04:14:58.605Z,969.6
2018-01-07T04:16:00.260Z,969.5
2018-01-07T04:17:01.911Z,969.6
2018-01-07T04:18:03.566Z,969.6
2018-01-07T04:19:05.224Z,969.6
2018-01-07T04:20:06.884Z,969.6
2018-01-07T04:21:08.535Z,969.6
2018-01-07T04:22:10.172Z,969.6
2018-01-07T04:23:11.821Z,969.6
2018-01-07T04:24:13.459Z,969.6
2018-01-07T04:25:15.106Z,969.7
2018-01-07T04:26:16.792Z,969.6
2018-01-07T04:27:18.436Z,969.7
2018-01-07T04:28:20.090Z,969.7
2018-01-07T04:29:21.754Z,969.7
2018-01-07T04:30:23.408Z,969.7
2018-01-07T04:31:25.076Z,969.7
2018-01-07T04:32:26.728Z,969.7
2018-01-07T04:33:28.390Z,969.7
2018-01-07T04:34:30.036Z,969.7
2018-01-07T04:35:31.686Z,969.7
2018-01-07T04:36:33.357Z,969.7
2018-01-07T04:37:35.002Z,969.7
2018-01-07T04:38:36.647Z,969.8
2018-01-07T04:39:38.292Z,969.8
2018-01-07T04:40:39.957Z,969.8
2018-01-07T04:41:41.654Z,969.8
2018-01-07T04:42:43.338Z,969.9
2018-01-07T04:43:45.002Z,969.9
2018-01-07T04:44:46.652Z,969.9
2018-01-07T04:45:48.316Z,969.9
2018-01-07T04:46:49.989Z,969.9
2018-01-07T04:47:51.645Z,969.9
2018-01-07T04:48:53.295Z,969.9
2018-01-07T04:49:54.982Z,969.9
2018-01-07T04:50:56.629Z,969.9
2018-01-07T04:51:58.348Z,970.0
2018-01-07T04:53:00.028Z,970.0
2018-01-07T04:54:01.695Z,970.0
2018-01-07T04:55:03.471Z,970.0
2018-01-07T04:56:05.335Z,970.1
2018-01-07T04:57:07.210Z,970.1
2018-01-07T04:58:09.081Z,970.1
2018-01-07T04:59:10.905Z,970.2
2018-01-07T05:00:12.822Z,970.2
2018-01-07T05:01:14.698Z,970.2
2018-01-07T05:02:16.560Z,970.2
2018-01-07T05:03:18.460Z,970.3
2018-01-07T05:04:20.296Z,970.3
2018-01-07T05:05:22.130Z,970.3
2018-01-07T05:06:24.084Z,970.3
2018-01-07T05:07:25.934Z,970.3
2018-01-07T05:08:28.361Z,970.3
2018-01-07T05:09:30.215Z,970.3
2018-01-07T05:10:32.095Z,970.2
2018-01-07T05:11:33.949Z,970.2
2018-01-07T05:12:35.848Z,970.3
2018-01-07T05:13:37.709Z,970.2
2018-01-07T05:14:39.612Z,970.2
2018-01-07T05:15:41.418Z,970.2
2018-01-07T05:16:43.239Z,970.3
2018-01-07T05:17:44.994Z,970.3
2018-01-07T05:18:46.880Z,970.3
2018-01-07T05:19:48.749Z,970.3
2018-01-07T05:20:50.635Z,970.4
2018-01-07T05:21:52.526Z,970.3
2018-01-07T05:22:54.354Z,970.4
2018-01-07T05:23:56.226Z,970.4
2018-01-07T05:24:58.084Z,970.3
2018-01-07T05:25:59.914Z,970.3
2018-01-07T05:27:01.802Z,970.3
2018-01-07T05:28:03.662Z,970.4
2018-01-07T05:29:05.654Z,970.4
2018-01-07T05:30:07.562Z,970.4
2018-01-07T05:31:09.453Z,970.4
2018-01-07T05:32:11.357Z,970.5
2018-01-07T05:33:13.191Z,970.4
2018-01-07T05:34:15.079Z,970.5
2018-01-07T05:35:17.002Z,970.5
2018-01-07T05:36:18.867Z,970.5
2018-01-07T05:37:20.763Z,970.6
2018-01-07T05:38:22.672Z,970.6
2018-01-07T05:39:24.577Z,970.6
2018-01-07T05:40:26.506Z,970.6
2018-01-07T05:41:28.400Z,970.7
2018-01-07T05:42:30.270Z,970.6
2018-01-07T05:43:32.100Z,970.6
2018-01-07T05:44:33.994Z,970.7
2018-01-07T05:45:35.888Z,970.7
2018-01-07T05:46:37.705Z,970.7
2018-01-07T05:47:39.536Z,970.7
2018-01-07T05:48:41.367Z,970.7
2018-01-07T05:49:43.204Z,970.7
2018-01-07T05:50:45.106Z,970.7
2018-01-07T05:51:46.995Z,970.7
2018-01-07T05:52:48.931Z,970.8
2018-01-07T05:53:50.853Z,970.7
2018-01-07T05:54:52.717Z,970.8
2018-01-07T05:55:54.600Z,970.8
2018-01-07T05:56:56.517Z,970.8
2018-01-07T05:57:58.359Z,970.8
2018-01-07T05:59:00.200Z,970.8
2018-01-07T06:00:02.068Z,970.8
2018-01-07T06:01:03.979Z,970.9
2018-01-07T06:02:05.986Z,970.9
2018-01-07T06:03:07.975Z,970.9
2018-01-07T06:04:10.003Z,970.9
2018-01-07T06:05:11.951Z,971.0
2018-01-07T06:06:13.860Z,970.9
2018-01-07T06:07:15.806Z,971.0
2018-01-07T06:08:17.802Z,971.0
2018-01-07T06:09:19.751Z,971.1
2018-01-07T06:10:21.748Z,971.2
2018-01-07T06:11:23.653Z,971.1
2018-01-07T06:12:25.605Z,971.2
2018-01-07T06:13:27.539Z,971.2
2018-01-07T06:14:29.504Z,971.3
2018-01-07T06:15:31.465Z,971.3
2018-01-07T06:16:33.455Z,971.3
2018-01-07T06:17:35.439Z,971.3
2018-01-07T06:18:37.393Z,971.3
2018-01-07T06:19:39.337Z,971.4
2018-01-07T06:20:41.371Z,971.4
2018-01-07T06:21:43.279Z,971.4
2018-01-07T06:22:45.112Z,971.4
2018-01-07T06:23:47.075Z,971.4
2018-01-07T06:24:49.009Z,971.4
2018-01-07T06:25:51.011Z,971.5
2018-01-07T06:26:52.959Z,971.4
2018-01-07T06:27:54.935Z,971.5
2018-01-07T06:28:56.916Z,971.4
2018-01-07T06:29:58.799Z,971.5
2018-01-07T06:31:00.752Z,971.5
2018-01-07T06:32:02.714Z,971.5
2018-01-07T06:33:04.821Z,971.5
2018-01-07T06:34:06.730Z,971.5
2018-01-07T06:35:08.691Z,971.5
2018-01-07T06:36:10.665Z,971.5
2018-01-07T06:37:12.678Z,971.5
2018-01-07T06:38:14.674Z,971.5
2018-01-07T06:39:16.589Z,971.5
2018-01-07T06:40:18.490Z,971.5
2018-01-07T06:41:20.430Z,971.5
2018-01-07T06:42:22.346Z,971.6
2018-01-07T06:43:24.344Z,971.6
2018-01-07T06:44:26.311Z,971.6
2018-01-07T06:45:28.203Z,971.6
2018-01-07T06:46:30.192Z,971.6
2018-01-07T06:47:32.159Z,971.7
2018-01-07T06:48:34.066Z,971.8
2018-01-07T06:49:36.019Z,971.8
2018-01-07T06:50:38.027Z,971.8
2018-01-07T06:51:39.924Z,971.8
2018-01-07T06:52:41.851Z,971.8
2018-01-07T06:53:43.791Z,971.9
2018-01-07T06:54:45.660Z,971.9
2018-01-07T06:55:47.590Z,971.9
2018-01-07T07:01:49.126Z,972.1
2018-01-07T07:02:50.786Z,972.1
2018-01-07T07:03:52.466Z,972.1
2018-01-07T07:04:54.154Z,972.1
2018-01-07T07:05:55.827Z,972.1
2018-01-07T07:06:57.473Z,972.1
2018-01-07T07:07:59.181Z,972.1
2018-01-07T07:09:00.868Z,972.1
2018-01-07T07:10:02.541Z,972.1
2018-01-07T07:11:04.253Z,972.1
2018-01-07T07:12:05.979Z,972.1
2018-01-07T07:13:07.638Z,972.2
2018-01-07T07:14:09.347Z,972.2
2018-01-07T07:15:11.038Z,972.2
2018-01-07T07:16:12.695Z,972.2
2018-01-07T07:17:14.466Z,972.2
2018-01-07T07:18:16.109Z,972.2
2018-01-07T07:19:17.760Z,972.2
2018-01-07T07:20:19.406Z,972.3
2018-01-07T07:21:21.055Z,972.4
2018-01-07T07:22:22.703Z,972.4
2018-01-07T07:23:24.361Z,972.4
2018-01-07T07:24:26.027Z,972.5
2018-01-07T07:25:27.689Z,972.5
2018-01-07T07:26:29.362Z,972.5
2018-01-07T07:27:31.012Z,972.5
2018-01-07T07:28:33.367Z,972.5
2018-01-07T07:29:35.008Z,972.5
2018-01-07T07:30:36.694Z,972.4
2018-01-07T07:31:38.340Z,972.5
2018-01-07T07:32:39.992Z,972.5
2018-01-07T07:33:41.640Z,972.5
2018-01-07T07:34:43.292Z,972.6
2018-01-07T07:35:45.172Z,972.6
2018-01-07T07:36:46.813Z,972.6
2018-01-07T07:37:48.545Z,972.7
2018-01-07T07:38:50.249Z,972.7
2018-01-07T07:39:51.944Z,972.7
2018-01-07T07:40:53.622Z,972.7
2018-01-07T07:41:55.279Z,972.7
2018-01-07T07:42:56.936Z,972.7
2018-01-07T07:43:58.648Z,972.8
2018-01-07T07:45:00.330Z,972.7
2018-01-07T07:46:02.024Z,972.9
2018-01-07T07:47:03.717Z,972.9
2018-01-07T07:48:05.413Z,972.9
2018-01-07T07:49:07.090Z,972.9
2018-01-07T07:50:08.788Z,973.0
2018-01-07T07:51:10.516Z,972.9
2018-01-07T07:52:12.265Z,973.0
2018-01-07T07:53:13.963Z,973.0
2018-01-07T07:54:15.623Z,973.0
2018-01-07T07:55:17.323Z,973.0
2018-01-07T07:56:19.029Z,973.1
2018-01-07T07:57:20.704Z,973.1
2018-01-07T07:58:22.394Z,973.1
2018-01-07T07:59:24.119Z,973.1
2018-01-07T08:00:25.786Z,973.1
2018-01-07T08:01:27.470Z,973.2
2018-01-07T08:02:29.181Z,973.2
2018-01-07T08:03:30.867Z,973.2
2018-01-07T08:04:32.535Z,973.3
2018-01-07T08:05:34.211Z,973.2
2018-01-07T08:06:35.870Z,973.3
2018-01-07T08:07:37.554Z,973.3
2018-01-07T08:08:39.217Z,973.3
2018-01-07T08:09:40.870Z,973.3
2018-01-07T08:10:42.520Z,973.3
2018-01-07T08:11:44.225Z,973.3
2018-01-07T08:12:45.924Z,973.4
2018-01-07T08:13:47.569Z,973.3
2018-01-07T08:14:49.261Z,973.4
2018-01-07T08:15:50.950Z,973.4
2018-01-07T08:16:52.672Z,973.4
2018-01-07T08:17:54.447Z,973.5
2018-01-07T08:18:56.389Z,973.5
2018-01-07T08:19:58.313Z,973.5
2018-01-07T08:21:00.321Z,973.5
2018-01-07T08:22:02.345Z,973.5
2018-01-07T08:23:04.484Z,973.5
2018-01-07T08:24:06.424Z,973.5
2018-01-07T08:25:08.360Z,973.4
2018-01-07T08:26:10.318Z,973.5
2018-01-07T08:27:12.276Z,973.5
2018-01-07T08:28:14.247Z,973.5
2018-01-07T08:29:16.406Z,973.5
2018-01-07T08:30:18.427Z,973.4
2018-01-07T08:31:20.430Z,973.5
2018-01-07T08:32:22.569Z,973.5
2018-01-07T08:33:24.807Z,973.6
2018-01-07T08:34:26.768Z,973.5
2018-01-07T08:35:28.785Z,973.6
2018-01-07T08:36:30.763Z,973.6
2018-01-07T08:37:32.664Z,973.6
2018-01-07T08:38:34.616Z,973.6
2018-01-07T08:39:36.533Z,973.6
2018-01-07T08:40:38.542Z,973.6
2018-01-07T08:41:40.563Z,973.6
2018-01-07T08:42:42.642Z,973.6
2018-01-07T08:43:44.663Z,973.6
2018-01-07T08:44:46.640Z,973.7
2018-01-07T08:45:49.222Z,973.6
2018-01-07T08:46:51.290Z,973.7
2018-01-07T08:47:53.388Z,973.7
2018-01-07T08:48:55.399Z,973.7
2018-01-07T08:49:57.376Z,973.7
2018-01-07T08:50:59.427Z,973.6
2018-01-07T08:52:01.860Z,973.7
2018-01-07T08:53:03.791Z,973.7
2018-01-07T08:54:05.782Z,973.7
2018-01-07T08:55:07.738Z,973.8
2018-01-07T08:56:09.733Z,973.8
2018-01-07T08:57:11.774Z,973.8
2018-01-07T08:58:13.795Z,973.8
2018-01-07T08:59:15.781Z,973.8
2018-01-07T09:00:17.756Z,973.8
2018-01-07T09:01:19.780Z,973.8
2018-01-07T09:02:21.730Z,973.9
2018-01-07T09:03:23.751Z,973.8
2018-01-07T09:04:25.805Z,973.9
2018-01-07T09:05:27.557Z,973.9
2018-01-07T09:06:29.639Z,973.9
2018-01-07T09:07:31.505Z,973.9
2018-01-07T09:08:33.421Z,973.9
2018-01-07T09:09:35.306Z,974.0
2018-01-07T09:10:37.145Z,974.0
2018-01-07T09:11:39.012Z,974.0
2018-01-07T09:12:40.898Z,974.0
2018-01-07T09:13:42.765Z,974.1
2018-01-07T09:14:45.424Z,974.1
2018-01-07T09:15:47.431Z,974.1
2018-01-07T09:16:49.695Z,974.1
2018-01-07T09:17:51.714Z,974.2
2018-01-07T09:18:53.623Z,974.2
2018-01-07T09:19:55.512Z,974.2
2018-01-07T09:20:57.480Z,974.2
2018-01-07T09:21:59.435Z,974.3
2018-01-07T09:23:01.403Z,974.2
2018-01-07T09:24:03.286Z,974.2
2018-01-07T09:25:05.137Z,974.3
2018-01-07T09:26:07.307Z,974.3
2018-01-07T09:27:09.214Z,974.3
2018-01-07T09:28:11.069Z,974.4
2018-01-07T09:29:13.024Z,974.4
2018-01-07T09:30:15.244Z,974.4
2018-01-07T09:31:17.511Z,974.5
2018-01-07T09:32:19.416Z,974.4
2018-01-07T09:33:21.283Z,974.4
2018-01-07T09:34:23.236Z,974.5
2018-01-07T09:35:25.554Z,974.4
2018-01-07T09:36:27.555Z,974.5
2018-01-07T09:37:29.606Z,974.5
2018-01-07T09:38:31.497Z,974.5
2018-01-07T09:39:33.433Z,974.6
2018-01-07T09:40:35.397Z,974.5
2018-01-07T09:41:37.437Z,974.5
2018-01-07T09:42:39.374Z,974.5
2018-01-07T09:43:41.325Z,974.6
2018-01-07T09:44:43.606Z,974.6
2018-01-07T09:45:47.492Z,974.6
2018-01-07T09:46:49.476Z,974.6
2018-01-07T09:47:51.391Z,974.6
2018-01-07T09:48:53.257Z,974.6
2018-01-07T09:49:55.143Z,974.7
2018-01-07T09:50:57.038Z,974.7
2018-01-07T09:51:58.924Z,974.6
2018-01-07T09:53:00.820Z,974.7
2018-01-07T09:54:02.679Z,974.6
2018-01-07T09:55:04.591Z,974.7
2018-01-07T09:56:06.580Z,974.6
2018-01-07T09:57:08.538Z,974.6
2018-01-07T09:58:10.379Z,974.7
2018-01-07T09:59:12.271Z,974.6
2018-01-07T10:00:14.504Z,974.7
2018-01-07T10:01:16.770Z,974.7
2018-01-07T10:02:18.719Z,974.6
2018-01-07T10:03:20.655Z,974.6
2018-01-07T10:04:22.593Z,974.7
2018-01-07T10:05:24.478Z,974.7
2018-01-07T10:06:26.226Z,974.7
2018-01-07T10:07:28.211Z,974.6
2018-01-07T10:08:32.896Z,974.8
2018-01-07T10:09:34.465Z,974.7
2018-01-07T10:10:36.723Z,974.7
2018-01-07T10:11:38.867Z,974.7
2018-01-07T10:12:40.870Z,974.7
2018-01-07T10:13:42.765Z,974.8
2018-01-07T10:14:44.963Z,974.7
2018-01-07T10:15:47.218Z,974.7
2018-01-07T10:16:49.246Z,974.7
2018-01-07T10:17:51.199Z,974.7
2018-01-07T10:18:53.536Z,974.6
2018-01-07T10:19:55.483Z,974.7
2018-01-07T10:20:57.644Z,974.7
2018-01-07T10:21:59.611Z,974.7
2018-01-07T10:23:01.622Z,974.7
2018-01-07T10:24:03.591Z,974.8
2018-01-07T10:25:05.566Z,974.8
2018-01-07T10:26:07.533Z,974.8
2018-01-07T10:27:09.528Z,974.8
2018-01-07T10:28:11.632Z,974.8
2018-01-07T10:29:13.694Z,974.8
2018-01-07T10:30:15.930Z,974.7
2018-01-07T10:31:17.866Z,974.8
2018-01-07T10:32:20.411Z,974.8
2018-01-07T10:33:22.527Z,974.8
2018-01-07T10:34:24.698Z,974.8
2018-01-07T10:35:29.520Z,974.7
2018-01-07T10:36:31.695Z,974.8
2018-01-07T10:37:34.181Z,974.8
2018-01-07T10:38:36.400Z,974.8
2018-01-07T10:39:38.929Z,974.9
2018-01-07T10:40:40.876Z,974.8
2018-01-07T10:41:42.847Z,974.8
2018-01-07T10:42:44.796Z,974.8
2018-01-07T10:43:46.744Z,974.8
2018-01-07T10:44:48.715Z,974.9
2018-01-07T10:45:50.666Z,974.8
2018-01-07T10:46:52.851Z,974.9
2018-01-07T10:47:54.784Z,974.9
2018-01-07T10:48:56.706Z,974.9
2018-01-07T10:49:58.641Z,974.9
2018-01-07T10:51:00.595Z,974.9
2018-01-07T10:52:02.608Z,974.9
2018-01-07T10:53:04.561Z,974.9
2018-01-07T10:54:06.555Z,975.0
2018-01-07T10:55:08.644Z,975.0
2018-01-07T11:01:26.932Z,974.9
2018-01-07T11:02:28.605Z,974.9
2018-01-07T11:03:30.250Z,974.9
2018-01-07T11:04:31.934Z,974.9
2018-01-07T11:05:33.617Z,974.9
2018-01-07T11:06:35.287Z,974.9
2018-01-07T11:07:37.021Z,975.0
2018-01-07T11:08:38.864Z,974.8
2018-01-07T11:09:40.724Z,974.9
2018-01-07T11:10:42.632Z,974.9
2018-01-07T11:11:44.526Z,974.9
2018-01-07T11:12:46.317Z,974.9
2018-01-07T11:13:48.189Z,974.9
2018-01-07T11:14:50.002Z,974.9
2018-01-07T11:15:51.971Z,975.0
2018-01-07T11:16:54.126Z,975.0
2018-01-07T11:17:55.945Z,975.0
2018-01-07T11:19:00.148Z,975.0
2018-01-07T11:20:02.014Z,974.9
2018-01-07T11:21:03.889Z,974.9
2018-01-07T11:22:05.794Z,974.9
2018-01-07T11:23:07.665Z,974.9
2018-01-07T11:24:09.517Z,975.0
2018-01-07T11:25:11.452Z,974.9
2018-01-07T11:26:13.310Z,975.0
2018-01-07T11:27:15.226Z,975.0
2018-01-07T11:28:17.120Z,975.0
2018-01-07T11:29:19.024Z,975.0
2018-01-07T11:30:20.895Z,974.9
2018-01-07T11:31:22.703Z,974.9
2018-01-07T11:32:24.625Z,974.9
2018-01-07T11:33:26.504Z,974.9
2018-01-07T11:34:28.426Z,974.9
2018-01-07T11:35:30.272Z,974.9
2018-01-07T11:36:32.129Z,974.9
2018-01-07T11:37:34.087Z,974.9
2018-01-07T11:38:35.964Z,974.9
2018-01-07T11:39:37.840Z,974.9
2018-01-07T11:40:39.698Z,975.0
2018-01-07T11:41:41.561Z,974.9
2018-01-07T11:42:43.550Z,974.9
2018-01-07T11:43:45.366Z,974.9
2018-01-07T11:44:47.251Z,974.8
2018-01-07T11:45:49.118Z,974.8
2018-01-07T11:46:50.979Z,974.7
2018-01-07T11:47:52.864Z,974.7
2018-01-07T11:48:54.692Z,974.8
2018-01-07T11:49:56.571Z,974.8
2018-01-07T11:50:58.374Z,974.8
2018-01-07T11:52:00.293Z,974.9
2018-01-07T11:53:02.189Z,974.9
2018-01-07T11:54:04.222Z,974.9
2018-01-07T11:55:06.260Z,974.9
2018-01-07T11:56:08.261Z,975.0
2018-01-07T11:57:10.194Z,975.0
2018-01-07T11:58:12.184Z,975.0
2018-01-07T11:59:14.126Z,975.0
2018-01-07T12:00:16.162Z,975.0
2018-01-07T12:01:18.088Z,975.0
2018-01-07T12:02:20.058Z,975.0
2018-01-07T12:03:22.067Z,975.0
2018-01-07T12:04:24.718Z,975.0
2018-01-07T12:05:26.698Z,975.0
2018-01-07T12:06:31.723Z,975.0
2018-01-07T12:07:33.694Z,975.0
2018-01-07T12:08:35.512Z,975.0
2018-01-07T12:09:37.243Z,975.0
2018-01-07T12:10:39.108Z,975.0
2018-01-07T12:11:43.040Z,974.9
2018-01-07T12:12:44.758Z,975.0
2018-01-07T12:13:46.577Z,974.9
2018-01-07T12:14:48.373Z,975.0
2018-01-07T12:15:50.197Z,975.0
2018-01-07T12:16:52.041Z,975.0
2018-01-07T12:17:53.913Z,975.0
2018-01-07T12:18:55.717Z,975.0
2018-01-07T12:19:57.608Z,974.9
2018-01-07T12:20:59.463Z,974.9
2018-01-07T12:22:01.287Z,974.9
2018-01-07T12:23:03.060Z,975.0
2018-01-07T12:24:04.926Z,974.9
2018-01-07T12:25:06.752Z,974.9
2018-01-07T12:26:08.583Z,974.9
2018-01-07T12:27:10.536Z,974.9
2018-01-07T12:28:13.339Z,975.0
2018-01-07T12:29:15.340Z,974.9
2018-01-07T12:30:17.265Z,974.8
2018-01-07T12:31:19.086Z,974.9
2018-01-07T12:32:22.659Z,974.9
2018-01-07T12:33:24.439Z,974.9
2018-01-07T12:34:26.923Z,974.9
2018-01-07T12:35:28.754Z,974.9
2018-01-07T12:36:31.191Z,975.0
2018-01-07T12:37:32.937Z,974.9
2018-01-07T12:38:34.704Z,974.8
2018-01-07T12:39:36.511Z,974.8
2018-01-07T12:40:38.306Z,974.8
2018-01-07T12:41:40.078Z,974.8
2018-01-07T12:42:42.693Z,974.8
2018-01-07T12:43:44.431Z,974.8
2018-01-07T12:44:46.143Z,974.8
2018-01-07T12:45:47.874Z,974.8
2018-01-07T12:46:49.711Z,974.8
2018-01-07T12:47:51.466Z,974.8
2018-01-07T12:48:53.284Z,974.8
2018-01-07T12:49:55.081Z,974.8
2018-01-07T12:50:56.849Z,974.8
2018-01-07T12:51:58.688Z,974.8
2018-01-07T12:53:00.431Z,974.9
2018-01-07T12:54:02.200Z,974.8
2018-01-07T12:55:03.975Z,974.7
2018-01-07T12:56:05.721Z,974.8
2018-01-07T12:57:07.532Z,974.7
2018-01-07T12:58:09.316Z,974.9
2018-01-07T12:59:11.865Z,974.8
2018-01-07T13:00:13.748Z,974.8
2018-01-07T13:01:15.510Z,974.8
2018-01-07T13:02:17.232Z,974.7
2018-01-07T13:03:18.999Z,974.7
2018-01-07T13:04:20.726Z,974.8
2018-01-07T13:05:22.474Z,974.8
2018-01-07T13:06:24.523Z,974.7
2018-01-07T13:07:26.421Z,974.8
2018-01-07T13:08:28.199Z,974.8
2018-01-07T13:09:29.984Z,974.8
2018-01-07T13:10:31.800Z,974.8
2018-01-07T13:11:33.589Z,974.8
2018-01-07T13:12:35.352Z,974.8
2018-01-07T13:13:37.239Z,974.7
2018-01-07T13:14:39.025Z,974.8
2018-01-07T13:15:41.116Z,974.7
2018-01-07T13:16:42.970Z,974.8
2018-01-07T13:17:44.778Z,974.8
2018-01-07T13:18:46.538Z,974.8
2018-01-07T13:19:48.388Z,974.8
2018-01-07T13:20:50.174Z,974.8
2018-01-07T13:21:51.967Z,974.8
2018-01-07T13:22:53.714Z,974.7
2018-01-07T13:23:55.504Z,974.8
2018-01-07T13:24:57.292Z,974.8
2018-01-07T13:25:59.072Z,974.7
2018-01-07T13:27:00.899Z,974.7
2018-01-07T13:28:02.649Z,974.7
2018-01-07T13:29:04.500Z,974.8
2018-01-07T13:30:06.279Z,974.7
2018-01-07T13:31:08.046Z,974.6
2018-01-07T13:32:09.830Z,974.7